sensor_id;sensor_type;location;lat;lon;timestamp;P1;durP1;ratioP1;P2;durP2;ratioP2
2720;SDS011;1368;49.484;11.112;2023-06-01T00:00:24;7.33;;;4.60;;
2720;SDS011;1368;49.484;11.112;2023-06-01T00:02:49;9.93;;;4.50;;
2720;SDS011;1368;49.484;11.112;2023-06-01T00:05:15;7.00;;;3.83;;
2720;SDS011;1368;49.484;11.112;2023-06-01T00:07:41;10.00;;;4.67;;
2720;SDS011;1368;49.484;11.112;2023-06-01T00:10:07;7.87;;;4.20;;
2720;SDS011;1368;49.484;11.112;2023-06-01T00:12:33;8.13;;;4.80;;
2720;SDS011;1368;49.484;11.112;2023-06-01T00:14:58;14.60;;;4.57;;
2720;SDS011;1368;49.484;11.112;2023-06-01T00:17:24;11.20;;;4.33;;
2720;SDS011;1368;49.484;11.112;2023-06-01T00:19:50;8.47;;;4.27;;
2720;SDS011;1368;49.484;11.112;2023-06-01T00:22:18;7.70;;;4.13;;
2720;SDS011;1368;49.484;11.112;2023-06-01T00:24:43;13.27;;;4.67;;
2720;SDS011;1368;49.484;11.112;2023-06-01T00:27:09;8.23;;;4.47;;
2720;SDS011;1368;49.484;11.112;2023-06-01T00:29:35;5.80;;;3.67;;
2720;SDS011;1368;49.484;11.112;2023-06-01T00:32:01;6.00;;;4.03;;
2720;SDS011;1368;49.484;11.112;2023-06-01T00:34:26;11.90;;;4.40;;
2720;SDS011;1368;49.484;11.112;2023-06-01T00:36:52;6.73;;;4.10;;
2720;SDS011;1368;49.484;11.112;2023-06-01T00:39:18;8.33;;;4.47;;
2720;SDS011;1368;49.484;11.112;2023-06-01T00:41:43;8.43;;;4.47;;
2720;SDS011;1368;49.484;11.112;2023-06-01T00:44:09;9.27;;;4.33;;
2720;SDS011;1368;49.484;11.112;2023-06-01T00:46:35;9.17;;;4.97;;
2720;SDS011;1368;49.484;11.112;2023-06-01T00:49:02;7.30;;;4.43;;
2720;SDS011;1368;49.484;11.112;2023-06-01T00:51:27;8.30;;;3.83;;
2720;SDS011;1368;49.484;11.112;2023-06-01T00:53:53;6.90;;;4.50;;
2720;SDS011;1368;49.484;11.112;2023-06-01T00:56:19;9.73;;;4.57;;
2720;SDS011;1368;49.484;11.112;2023-06-01T00:58:46;9.10;;;4.23;;
2720;SDS011;1368;49.484;11.112;2023-06-01T01:01:11;7.27;;;4.40;;
2720;SDS011;1368;49.484;11.112;2023-06-01T01:03:43;12.60;;;5.03;;
2720;SDS011;1368;49.484;11.112;2023-06-01T01:06:16;4.63;;;3.80;;
2720;SDS011;1368;49.484;11.112;2023-06-01T01:08:58;7.13;;;4.00;;
2720;SDS011;1368;49.484;11.112;2023-06-01T01:11:40;10.23;;;4.60;;
2720;SDS011;1368;49.484;11.112;2023-06-01T01:14:14;7.90;;;4.70;;
2720;SDS011;1368;49.484;11.112;2023-06-01T01:17:09;8.00;;;4.93;;
2720;SDS011;1368;49.484;11.112;2023-06-01T01:20:12;7.83;;;4.30;;
2720;SDS011;1368;49.484;11.112;2023-06-01T01:28:37;7.30;;;4.13;;
2720;SDS011;1368;49.484;11.112;2023-06-01T01:31:16;10.33;;;4.70;;
2720;SDS011;1368;49.484;11.112;2023-06-01T01:33:43;6.47;;;4.93;;
2720;SDS011;1368;49.484;11.112;2023-06-01T01:36:11;6.33;;;3.60;;
2720;SDS011;1368;49.484;11.112;2023-06-01T01:38:37;6.90;;;4.87;;
2720;SDS011;1368;49.484;11.112;2023-06-01T01:41:04;7.70;;;4.80;;
2720;SDS011;1368;49.484;11.112;2023-06-01T01:43:30;9.70;;;5.20;;
2720;SDS011;1368;49.484;11.112;2023-06-01T01:46:11;8.70;;;4.40;;
2720;SDS011;1368;49.484;11.112;2023-06-01T01:51:25;7.87;;;4.83;;
2720;SDS011;1368;49.484;11.112;2023-06-01T01:53:57;7.53;;;3.70;;
2720;SDS011;1368;49.484;11.112;2023-06-01T01:56:25;8.37;;;4.50;;
2720;SDS011;1368;49.484;11.112;2023-06-01T01:58:51;7.73;;;4.57;;
2720;SDS011;1368;49.484;11.112;2023-06-01T02:01:19;9.73;;;4.40;;
2720;SDS011;1368;49.484;11.112;2023-06-01T02:03:45;7.43;;;4.40;;
2720;SDS011;1368;49.484;11.112;2023-06-01T02:06:10;6.00;;;3.90;;
2720;SDS011;1368;49.484;11.112;2023-06-01T02:08:36;6.33;;;4.67;;
2720;SDS011;1368;49.484;11.112;2023-06-01T02:11:02;7.70;;;4.00;;
2720;SDS011;1368;49.484;11.112;2023-06-01T02:13:27;9.23;;;4.80;;
2720;SDS011;1368;49.484;11.112;2023-06-01T02:15:53;8.70;;;5.00;;
2720;SDS011;1368;49.484;11.112;2023-06-01T02:18:18;7.77;;;4.67;;
2720;SDS011;1368;49.484;11.112;2023-06-01T02:20:44;7.87;;;4.47;;
2720;SDS011;1368;49.484;11.112;2023-06-01T02:23:10;14.03;;;4.30;;
2720;SDS011;1368;49.484;11.112;2023-06-01T02:25:36;8.10;;;4.80;;
2720;SDS011;1368;49.484;11.112;2023-06-01T02:28:01;8.50;;;4.37;;
2720;SDS011;1368;49.484;11.112;2023-06-01T02:30:27;7.03;;;4.43;;
2720;SDS011;1368;49.484;11.112;2023-06-01T02:32:52;9.20;;;4.97;;
2720;SDS011;1368;49.484;11.112;2023-06-01T02:35:18;8.87;;;4.77;;
2720;SDS011;1368;49.484;11.112;2023-06-01T02:37:44;7.30;;;3.80;;
2720;SDS011;1368;49.484;11.112;2023-06-01T02:40:10;8.60;;;4.47;;
2720;SDS011;1368;49.484;11.112;2023-06-01T02:42:36;8.93;;;5.00;;
2720;SDS011;1368;49.484;11.112;2023-06-01T02:45:06;6.87;;;4.50;;
2720;SDS011;1368;49.484;11.112;2023-06-01T02:47:32;8.50;;;4.30;;
2720;SDS011;1368;49.484;11.112;2023-06-01T02:49:58;11.33;;;4.50;;
2720;SDS011;1368;49.484;11.112;2023-06-01T02:52:23;6.80;;;4.10;;
2720;SDS011;1368;49.484;11.112;2023-06-01T02:54:49;7.03;;;4.40;;
2720;SDS011;1368;49.484;11.112;2023-06-01T02:57:15;8.67;;;4.40;;
2720;SDS011;1368;49.484;11.112;2023-06-01T02:59:40;8.50;;;5.20;;
2720;SDS011;1368;49.484;11.112;2023-06-01T03:02:06;9.43;;;4.60;;
2720;SDS011;1368;49.484;11.112;2023-06-01T03:04:31;7.73;;;5.10;;
2720;SDS011;1368;49.484;11.112;2023-06-01T03:06:57;9.27;;;4.57;;
2720;SDS011;1368;49.484;11.112;2023-06-01T03:09:24;8.30;;;5.23;;
2720;SDS011;1368;49.484;11.112;2023-06-01T03:11:50;5.87;;;4.33;;
2720;SDS011;1368;49.484;11.112;2023-06-01T03:14:15;7.93;;;4.50;;
2720;SDS011;1368;49.484;11.112;2023-06-01T03:16:41;6.40;;;4.53;;
2720;SDS011;1368;49.484;11.112;2023-06-01T03:19:07;7.33;;;4.80;;
2720;SDS011;1368;49.484;11.112;2023-06-01T03:21:32;6.50;;;4.03;;
2720;SDS011;1368;49.484;11.112;2023-06-01T03:23:58;7.73;;;4.70;;
2720;SDS011;1368;49.484;11.112;2023-06-01T03:26:24;8.00;;;4.37;;
2720;SDS011;1368;49.484;11.112;2023-06-01T03:28:50;9.80;;;4.60;;
2720;SDS011;1368;49.484;11.112;2023-06-01T03:31:16;8.70;;;4.57;;
2720;SDS011;1368;49.484;11.112;2023-06-01T03:33:41;6.70;;;4.53;;
2720;SDS011;1368;49.484;11.112;2023-06-01T03:36:07;9.83;;;4.77;;
2720;SDS011;1368;49.484;11.112;2023-06-01T03:38:33;12.70;;;4.30;;
2720;SDS011;1368;49.484;11.112;2023-06-01T03:41:01;8.97;;;4.93;;
2720;SDS011;1368;49.484;11.112;2023-06-01T03:43:27;13.63;;;5.43;;
2720;SDS011;1368;49.484;11.112;2023-06-01T03:45:52;11.07;;;4.77;;
2720;SDS011;1368;49.484;11.112;2023-06-01T03:48:18;9.40;;;5.17;;
2720;SDS011;1368;49.484;11.112;2023-06-01T03:50:44;7.10;;;4.30;;
2720;SDS011;1368;49.484;11.112;2023-06-01T03:53:10;12.13;;;4.87;;
2720;SDS011;1368;49.484;11.112;2023-06-01T03:55:36;11.20;;;3.63;;
2720;SDS011;1368;49.484;11.112;2023-06-01T03:58:02;7.63;;;4.13;;
2720;SDS011;1368;49.484;11.112;2023-06-01T04:00:29;6.63;;;4.37;;
2720;SDS011;1368;49.484;11.112;2023-06-01T04:02:57;7.10;;;4.17;;
2720;SDS011;1368;49.484;11.112;2023-06-01T04:05:26;14.13;;;4.60;;
2720;SDS011;1368;49.484;11.112;2023-06-01T04:07:53;8.60;;;4.90;;
2720;SDS011;1368;49.484;11.112;2023-06-01T04:10:19;9.03;;;5.10;;
2720;SDS011;1368;49.484;11.112;2023-06-01T04:12:46;6.57;;;4.10;;
2720;SDS011;1368;49.484;11.112;2023-06-01T04:15:14;8.23;;;4.10;;
2720;SDS011;1368;49.484;11.112;2023-06-01T04:17:40;7.23;;;4.33;;
2720;SDS011;1368;49.484;11.112;2023-06-01T04:20:08;8.00;;;4.30;;
2720;SDS011;1368;49.484;11.112;2023-06-01T04:22:38;5.70;;;4.00;;
2720;SDS011;1368;49.484;11.112;2023-06-01T04:25:05;8.00;;;4.83;;
2720;SDS011;1368;49.484;11.112;2023-06-01T04:27:33;10.63;;;4.53;;
2720;SDS011;1368;49.484;11.112;2023-06-01T04:30:02;9.07;;;4.17;;
2720;SDS011;1368;49.484;11.112;2023-06-01T04:32:29;6.53;;;4.70;;
2720;SDS011;1368;49.484;11.112;2023-06-01T04:34:54;5.73;;;4.10;;
2720;SDS011;1368;49.484;11.112;2023-06-01T04:37:22;5.97;;;4.40;;
2720;SDS011;1368;49.484;11.112;2023-06-01T04:39:47;7.00;;;4.30;;
2720;SDS011;1368;49.484;11.112;2023-06-01T04:42:15;7.77;;;4.27;;
2720;SDS011;1368;49.484;11.112;2023-06-01T04:44:41;8.27;;;4.53;;
2720;SDS011;1368;49.484;11.112;2023-06-01T04:47:15;9.13;;;4.23;;
2720;SDS011;1368;49.484;11.112;2023-06-01T04:49:42;6.07;;;4.03;;
2720;SDS011;1368;49.484;11.112;2023-06-01T04:52:08;6.50;;;3.87;;
2720;SDS011;1368;49.484;11.112;2023-06-01T04:54:37;8.93;;;4.50;;
2720;SDS011;1368;49.484;11.112;2023-06-01T04:57:03;7.70;;;3.60;;
2720;SDS011;1368;49.484;11.112;2023-06-01T04:59:31;7.93;;;4.30;;
2720;SDS011;1368;49.484;11.112;2023-06-01T05:01:57;7.10;;;3.77;;
2720;SDS011;1368;49.484;11.112;2023-06-01T05:04:23;6.30;;;3.90;;
2720;SDS011;1368;49.484;11.112;2023-06-01T05:06:48;7.10;;;3.70;;
2720;SDS011;1368;49.484;11.112;2023-06-01T05:09:14;6.03;;;3.47;;
2720;SDS011;1368;49.484;11.112;2023-06-01T05:11:39;7.33;;;3.60;;
2720;SDS011;1368;49.484;11.112;2023-06-01T05:14:05;6.30;;;4.10;;
2720;SDS011;1368;49.484;11.112;2023-06-01T05:16:31;6.30;;;3.23;;
2720;SDS011;1368;49.484;11.112;2023-06-01T05:18:59;8.33;;;3.43;;
2720;SDS011;1368;49.484;11.112;2023-06-01T05:21:25;9.13;;;3.97;;
2720;SDS011;1368;49.484;11.112;2023-06-01T05:23:51;9.93;;;3.53;;
2720;SDS011;1368;49.484;11.112;2023-06-01T05:26:16;9.77;;;3.80;;
2720;SDS011;1368;49.484;11.112;2023-06-01T05:28:42;5.40;;;3.37;;
2720;SDS011;1368;49.484;11.112;2023-06-01T05:31:07;5.20;;;3.50;;
2720;SDS011;1368;49.484;11.112;2023-06-01T05:33:33;5.57;;;3.07;;
2720;SDS011;1368;49.484;11.112;2023-06-01T05:36:00;4.40;;;3.00;;
2720;SDS011;1368;49.484;11.112;2023-06-01T05:38:26;5.00;;;3.03;;
2720;SDS011;1368;49.484;11.112;2023-06-01T05:40:52;8.03;;;3.67;;
2720;SDS011;1368;49.484;11.112;2023-06-01T05:43:17;5.20;;;2.73;;
2720;SDS011;1368;49.484;11.112;2023-06-01T05:45:43;6.07;;;3.20;;
2720;SDS011;1368;49.484;11.112;2023-06-01T05:48:08;5.80;;;2.97;;
2720;SDS011;1368;49.484;11.112;2023-06-01T05:50:34;6.30;;;3.17;;
2720;SDS011;1368;49.484;11.112;2023-06-01T05:52:59;7.97;;;3.57;;
2720;SDS011;1368;49.484;11.112;2023-06-01T05:55:25;6.27;;;3.47;;
2720;SDS011;1368;49.484;11.112;2023-06-01T05:57:50;6.47;;;3.57;;
2720;SDS011;1368;49.484;11.112;2023-06-01T06:00:16;7.50;;;3.03;;
2720;SDS011;1368;49.484;11.112;2023-06-01T06:02:43;7.67;;;3.10;;
2720;SDS011;1368;49.484;11.112;2023-06-01T06:05:08;5.60;;;3.23;;
2720;SDS011;1368;49.484;11.112;2023-06-01T06:07:34;5.43;;;3.43;;
2720;SDS011;1368;49.484;11.112;2023-06-01T06:10:00;6.20;;;3.23;;
2720;SDS011;1368;49.484;11.112;2023-06-01T06:12:26;4.70;;;3.57;;
2720;SDS011;1368;49.484;11.112;2023-06-01T06:14:52;5.20;;;3.10;;
2720;SDS011;1368;49.484;11.112;2023-06-01T06:17:18;5.90;;;3.47;;
2720;SDS011;1368;49.484;11.112;2023-06-01T06:19:44;8.80;;;3.80;;
2720;SDS011;1368;49.484;11.112;2023-06-01T06:22:10;8.60;;;3.47;;
2720;SDS011;1368;49.484;11.112;2023-06-01T06:24:36;7.77;;;3.60;;
2720;SDS011;1368;49.484;11.112;2023-06-01T06:27:01;7.70;;;3.63;;
2720;SDS011;1368;49.484;11.112;2023-06-01T06:29:29;6.17;;;3.50;;
2720;SDS011;1368;49.484;11.112;2023-06-01T06:31:55;7.70;;;3.30;;
2720;SDS011;1368;49.484;11.112;2023-06-01T06:34:20;8.73;;;3.70;;
2720;SDS011;1368;49.484;11.112;2023-06-01T06:36:46;8.17;;;3.60;;
2720;SDS011;1368;49.484;11.112;2023-06-01T06:39:11;8.70;;;3.33;;
2720;SDS011;1368;49.484;11.112;2023-06-01T06:41:39;4.80;;;3.60;;
2720;SDS011;1368;49.484;11.112;2023-06-01T06:44:05;5.70;;;3.10;;
2720;SDS011;1368;49.484;11.112;2023-06-01T06:46:31;10.93;;;3.80;;
2720;SDS011;1368;49.484;11.112;2023-06-01T06:48:56;6.13;;;3.30;;
2720;SDS011;1368;49.484;11.112;2023-06-01T06:51:22;5.60;;;3.20;;
2720;SDS011;1368;49.484;11.112;2023-06-01T06:53:47;5.17;;;3.50;;
2720;SDS011;1368;49.484;11.112;2023-06-01T06:56:13;5.93;;;3.03;;
2720;SDS011;1368;49.484;11.112;2023-06-01T06:58:39;4.63;;;2.90;;
2720;SDS011;1368;49.484;11.112;2023-06-01T07:01:04;7.00;;;3.50;;
2720;SDS011;1368;49.484;11.112;2023-06-01T07:03:31;5.40;;;3.23;;
2720;SDS011;1368;49.484;11.112;2023-06-01T07:05:57;7.60;;;3.07;;
2720;SDS011;1368;49.484;11.112;2023-06-01T07:08:22;8.53;;;3.50;;
2720;SDS011;1368;49.484;11.112;2023-06-01T07:10:48;8.23;;;3.40;;
2720;SDS011;1368;49.484;11.112;2023-06-01T07:13:14;5.57;;;2.93;;
2720;SDS011;1368;49.484;11.112;2023-06-01T07:15:39;7.17;;;2.80;;
2720;SDS011;1368;49.484;11.112;2023-06-01T07:18:05;8.13;;;2.63;;
2720;SDS011;1368;49.484;11.112;2023-06-01T07:20:31;5.73;;;3.00;;
2720;SDS011;1368;49.484;11.112;2023-06-01T07:22:57;4.80;;;2.90;;
2720;SDS011;1368;49.484;11.112;2023-06-01T07:25:22;5.53;;;3.07;;
2720;SDS011;1368;49.484;11.112;2023-06-01T07:27:48;5.23;;;2.93;;
2720;SDS011;1368;49.484;11.112;2023-06-01T07:30:14;6.60;;;2.93;;
2720;SDS011;1368;49.484;11.112;2023-06-01T07:32:40;5.93;;;2.40;;
2720;SDS011;1368;49.484;11.112;2023-06-01T07:35:06;7.47;;;3.30;;
2720;SDS011;1368;49.484;11.112;2023-06-01T07:37:33;4.03;;;2.20;;
2720;SDS011;1368;49.484;11.112;2023-06-01T07:39:58;4.67;;;2.67;;
2720;SDS011;1368;49.484;11.112;2023-06-01T07:42:24;12.63;;;2.67;;
2720;SDS011;1368;49.484;11.112;2023-06-01T07:44:49;5.37;;;2.50;;
2720;SDS011;1368;49.484;11.112;2023-06-01T07:47:16;6.40;;;2.57;;
2720;SDS011;1368;49.484;11.112;2023-06-01T07:49:41;5.60;;;2.40;;
2720;SDS011;1368;49.484;11.112;2023-06-01T07:52:07;6.13;;;3.30;;
2720;SDS011;1368;49.484;11.112;2023-06-01T07:54:34;5.33;;;2.70;;
2720;SDS011;1368;49.484;11.112;2023-06-01T07:57:03;5.50;;;2.87;;
2720;SDS011;1368;49.484;11.112;2023-06-01T07:59:29;3.50;;;2.13;;
2720;SDS011;1368;49.484;11.112;2023-06-01T08:01:58;6.80;;;2.77;;
2720;SDS011;1368;49.484;11.112;2023-06-01T08:04:25;5.37;;;2.70;;
2720;SDS011;1368;49.484;11.112;2023-06-01T08:06:52;5.83;;;2.90;;
2720;SDS011;1368;49.484;11.112;2023-06-01T08:09:21;4.87;;;3.07;;
2720;SDS011;1368;49.484;11.112;2023-06-01T08:11:48;6.40;;;2.90;;
2720;SDS011;1368;49.484;11.112;2023-06-01T08:14:15;6.07;;;3.20;;
2720;SDS011;1368;49.484;11.112;2023-06-01T08:16:41;5.07;;;3.00;;
2720;SDS011;1368;49.484;11.112;2023-06-01T08:19:07;4.27;;;2.83;;
2720;SDS011;1368;49.484;11.112;2023-06-01T08:21:33;5.60;;;3.20;;
2720;SDS011;1368;49.484;11.112;2023-06-01T08:24:00;4.53;;;2.30;;
2720;SDS011;1368;49.484;11.112;2023-06-01T08:26:26;5.10;;;2.70;;
2720;SDS011;1368;49.484;11.112;2023-06-01T08:28:52;5.10;;;2.60;;
2720;SDS011;1368;49.484;11.112;2023-06-01T08:31:21;4.03;;;2.30;;
2720;SDS011;1368;49.484;11.112;2023-06-01T08:33:47;6.63;;;3.30;;
2720;SDS011;1368;49.484;11.112;2023-06-01T08:36:15;5.27;;;3.00;;
2720;SDS011;1368;49.484;11.112;2023-06-01T08:38:41;8.80;;;3.20;;
2720;SDS011;1368;49.484;11.112;2023-06-01T08:43:41;4.33;;;2.57;;
2720;SDS011;1368;49.484;11.112;2023-06-01T08:46:12;9.23;;;2.63;;
2720;SDS011;1368;49.484;11.112;2023-06-01T08:48:40;5.70;;;2.47;;
2720;SDS011;1368;49.484;11.112;2023-06-01T08:51:08;4.70;;;2.33;;
2720;SDS011;1368;49.484;11.112;2023-06-01T08:53:34;6.97;;;3.40;;
2720;SDS011;1368;49.484;11.112;2023-06-01T08:56:00;4.60;;;2.80;;
2720;SDS011;1368;49.484;11.112;2023-06-01T08:58:28;8.17;;;3.13;;
2720;SDS011;1368;49.484;11.112;2023-06-01T09:00:55;4.53;;;2.83;;
2720;SDS011;1368;49.484;11.112;2023-06-01T09:03:22;6.50;;;2.77;;
2720;SDS011;1368;49.484;11.112;2023-06-01T09:05:49;9.00;;;2.60;;
2720;SDS011;1368;49.484;11.112;2023-06-01T09:08:14;5.10;;;2.70;;
2720;SDS011;1368;49.484;11.112;2023-06-01T09:10:41;4.73;;;3.20;;
2720;SDS011;1368;49.484;11.112;2023-06-01T09:13:07;6.23;;;2.80;;
2720;SDS011;1368;49.484;11.112;2023-06-01T09:15:32;5.50;;;2.90;;
2720;SDS011;1368;49.484;11.112;2023-06-01T09:18:10;7.43;;;3.20;;
2720;SDS011;1368;49.484;11.112;2023-06-01T09:20:36;4.93;;;2.57;;
2720;SDS011;1368;49.484;11.112;2023-06-01T09:23:04;4.03;;;2.60;;
2720;SDS011;1368;49.484;11.112;2023-06-01T09:25:30;5.30;;;3.17;;
2720;SDS011;1368;49.484;11.112;2023-06-01T09:27:58;6.13;;;3.10;;
2720;SDS011;1368;49.484;11.112;2023-06-01T09:30:25;8.77;;;3.23;;
2720;SDS011;1368;49.484;11.112;2023-06-01T09:33:12;7.40;;;2.87;;
2720;SDS011;1368;49.484;11.112;2023-06-01T09:35:40;5.77;;;2.60;;
2720;SDS011;1368;49.484;11.112;2023-06-01T09:38:08;5.63;;;2.63;;
2720;SDS011;1368;49.484;11.112;2023-06-01T09:40:34;6.23;;;2.67;;
2720;SDS011;1368;49.484;11.112;2023-06-01T09:43:01;5.53;;;2.97;;
2720;SDS011;1368;49.484;11.112;2023-06-01T09:45:28;7.27;;;3.20;;
2720;SDS011;1368;49.484;11.112;2023-06-01T09:48:01;9.87;;;3.73;;
2720;SDS011;1368;49.484;11.112;2023-06-01T09:50:41;8.37;;;3.60;;
2720;SDS011;1368;49.484;11.112;2023-06-01T09:53:07;6.33;;;2.77;;
2720;SDS011;1368;49.484;11.112;2023-06-01T09:55:33;5.90;;;2.63;;
2720;SDS011;1368;49.484;11.112;2023-06-01T10:00:48;5.10;;;3.10;;
2720;SDS011;1368;49.484;11.112;2023-06-01T10:03:15;5.73;;;2.63;;
2720;SDS011;1368;49.484;11.112;2023-06-01T10:05:42;10.00;;;2.77;;
2720;SDS011;1368;49.484;11.112;2023-06-01T10:08:12;4.87;;;2.67;;
2720;SDS011;1368;49.484;11.112;2023-06-01T10:10:41;7.77;;;2.70;;
2720;SDS011;1368;49.484;11.112;2023-06-01T10:13:07;4.17;;;2.53;;
2720;SDS011;1368;49.484;11.112;2023-06-01T10:15:33;6.87;;;2.90;;
2720;SDS011;1368;49.484;11.112;2023-06-01T10:17:59;9.43;;;3.10;;
2720;SDS011;1368;49.484;11.112;2023-06-01T10:20:25;5.47;;;2.70;;
2720;SDS011;1368;49.484;11.112;2023-06-01T10:22:52;6.80;;;2.83;;
2720;SDS011;1368;49.484;11.112;2023-06-01T10:25:18;6.07;;;2.80;;
2720;SDS011;1368;49.484;11.112;2023-06-01T10:28:06;5.10;;;2.80;;
2720;SDS011;1368;49.484;11.112;2023-06-01T10:30:33;4.67;;;2.83;;
2720;SDS011;1368;49.484;11.112;2023-06-01T10:32:59;5.53;;;2.50;;
2720;SDS011;1368;49.484;11.112;2023-06-01T10:40:44;4.87;;;3.03;;
2720;SDS011;1368;49.484;11.112;2023-06-01T10:46:01;7.27;;;3.43;;
2720;SDS011;1368;49.484;11.112;2023-06-01T10:51:22;9.00;;;2.60;;
2720;SDS011;1368;49.484;11.112;2023-06-01T10:53:51;4.67;;;2.53;;
2720;SDS011;1368;49.484;11.112;2023-06-01T11:01:39;5.73;;;2.93;;
2720;SDS011;1368;49.484;11.112;2023-06-01T11:04:07;5.00;;;3.07;;
2720;SDS011;1368;49.484;11.112;2023-06-01T11:06:40;5.50;;;3.33;;
2720;SDS011;1368;49.484;11.112;2023-06-01T11:09:08;6.47;;;3.40;;
2720;SDS011;1368;49.484;11.112;2023-06-01T11:14:16;6.10;;;3.50;;
2720;SDS011;1368;49.484;11.112;2023-06-01T11:16:44;5.53;;;2.77;;
2720;SDS011;1368;49.484;11.112;2023-06-01T11:19:10;10.37;;;3.70;;
2720;SDS011;1368;49.484;11.112;2023-06-01T11:21:41;8.53;;;3.27;;
2720;SDS011;1368;49.484;11.112;2023-06-01T11:26:36;8.23;;;3.30;;
2720;SDS011;1368;49.484;11.112;2023-06-01T11:31:37;6.27;;;3.20;;
2720;SDS011;1368;49.484;11.112;2023-06-01T11:34:08;7.83;;;2.83;;
2720;SDS011;1368;49.484;11.112;2023-06-01T11:36:35;8.30;;;2.77;;
2720;SDS011;1368;49.484;11.112;2023-06-01T11:39:03;6.97;;;3.67;;
2720;SDS011;1368;49.484;11.112;2023-06-01T11:41:32;5.90;;;2.77;;
2720;SDS011;1368;49.484;11.112;2023-06-01T11:43:58;8.57;;;3.50;;
2720;SDS011;1368;49.484;11.112;2023-06-01T11:46:24;5.50;;;2.80;;
2720;SDS011;1368;49.484;11.112;2023-06-01T11:49:03;4.90;;;3.00;;
2720;SDS011;1368;49.484;11.112;2023-06-01T11:51:31;6.23;;;2.87;;
2720;SDS011;1368;49.484;11.112;2023-06-01T11:54:02;9.53;;;4.50;;
2720;SDS011;1368;49.484;11.112;2023-06-01T11:56:31;6.13;;;3.40;;
2720;SDS011;1368;49.484;11.112;2023-06-01T11:58:59;3.97;;;2.63;;
2720;SDS011;1368;49.484;11.112;2023-06-01T12:01:25;6.53;;;3.07;;
2720;SDS011;1368;49.484;11.112;2023-06-01T12:03:51;6.80;;;3.20;;
2720;SDS011;1368;49.484;11.112;2023-06-01T12:06:19;5.53;;;3.10;;
2720;SDS011;1368;49.484;11.112;2023-06-01T12:08:45;7.93;;;3.50;;
2720;SDS011;1368;49.484;11.112;2023-06-01T12:11:12;5.70;;;2.50;;
2720;SDS011;1368;49.484;11.112;2023-06-01T12:13:41;4.60;;;3.23;;
2720;SDS011;1368;49.484;11.112;2023-06-01T12:16:07;7.70;;;2.80;;
2720;SDS011;1368;49.484;11.112;2023-06-01T12:18:33;6.20;;;3.27;;
2720;SDS011;1368;49.484;11.112;2023-06-01T12:20:58;9.10;;;2.80;;
2720;SDS011;1368;49.484;11.112;2023-06-01T12:23:24;7.13;;;3.30;;
2720;SDS011;1368;49.484;11.112;2023-06-01T12:25:54;5.87;;;2.90;;
2720;SDS011;1368;49.484;11.112;2023-06-01T12:28:21;5.77;;;2.90;;
2720;SDS011;1368;49.484;11.112;2023-06-01T12:30:48;6.57;;;2.80;;
2720;SDS011;1368;49.484;11.112;2023-06-01T12:33:33;4.80;;;2.90;;
2720;SDS011;1368;49.484;11.112;2023-06-01T12:36:00;6.90;;;2.90;;
2720;SDS011;1368;49.484;11.112;2023-06-01T12:38:26;6.97;;;2.73;;
2720;SDS011;1368;49.484;11.112;2023-06-01T12:43:37;5.97;;;3.10;;
2720;SDS011;1368;49.484;11.112;2023-06-01T12:46:04;9.93;;;2.83;;
2720;SDS011;1368;49.484;11.112;2023-06-01T12:48:33;7.30;;;3.00;;
2720;SDS011;1368;49.484;11.112;2023-06-01T12:51:01;5.13;;;3.00;;
2720;SDS011;1368;49.484;11.112;2023-06-01T12:53:30;6.00;;;3.30;;
2720;SDS011;1368;49.484;11.112;2023-06-01T12:55:56;5.80;;;3.20;;
2720;SDS011;1368;49.484;11.112;2023-06-01T12:58:21;8.53;;;3.30;;
2720;SDS011;1368;49.484;11.112;2023-06-01T13:00:47;6.60;;;2.97;;
2720;SDS011;1368;49.484;11.112;2023-06-01T13:03:13;7.60;;;3.03;;
2720;SDS011;1368;49.484;11.112;2023-06-01T13:05:43;6.13;;;3.03;;
2720;SDS011;1368;49.484;11.112;2023-06-01T13:08:12;6.13;;;2.90;;
2720;SDS011;1368;49.484;11.112;2023-06-01T13:10:38;19.40;;;3.30;;
2720;SDS011;1368;49.484;11.112;2023-06-01T13:13:04;5.10;;;2.80;;
2720;SDS011;1368;49.484;11.112;2023-06-01T13:15:29;4.00;;;2.77;;
2720;SDS011;1368;49.484;11.112;2023-06-01T13:17:55;5.20;;;3.00;;
2720;SDS011;1368;49.484;11.112;2023-06-01T13:20:21;7.80;;;3.07;;
2720;SDS011;1368;49.484;11.112;2023-06-01T13:22:47;5.93;;;3.70;;
2720;SDS011;1368;49.484;11.112;2023-06-01T13:25:13;8.40;;;2.90;;
2720;SDS011;1368;49.484;11.112;2023-06-01T13:27:39;5.23;;;3.07;;
2720;SDS011;1368;49.484;11.112;2023-06-01T13:30:05;11.03;;;3.67;;
2720;SDS011;1368;49.484;11.112;2023-06-01T13:32:32;5.53;;;2.90;;
2720;SDS011;1368;49.484;11.112;2023-06-01T13:34:58;7.93;;;3.37;;
2720;SDS011;1368;49.484;11.112;2023-06-01T13:37:24;12.77;;;3.80;;
2720;SDS011;1368;49.484;11.112;2023-06-01T13:39:50;5.13;;;2.20;;
2720;SDS011;1368;49.484;11.112;2023-06-01T13:42:18;6.40;;;3.00;;
2720;SDS011;1368;49.484;11.112;2023-06-01T13:44:44;7.00;;;3.33;;
2720;SDS011;1368;49.484;11.112;2023-06-01T13:47:13;5.77;;;3.43;;
2720;SDS011;1368;49.484;11.112;2023-06-01T13:49:40;6.33;;;3.17;;
2720;SDS011;1368;49.484;11.112;2023-06-01T13:52:07;4.80;;;3.03;;
2720;SDS011;1368;49.484;11.112;2023-06-01T13:54:33;6.10;;;2.87;;
2720;SDS011;1368;49.484;11.112;2023-06-01T13:56:59;4.97;;;3.20;;
2720;SDS011;1368;49.484;11.112;2023-06-01T13:59:25;6.40;;;3.40;;
2720;SDS011;1368;49.484;11.112;2023-06-01T14:01:51;8.17;;;3.03;;
2720;SDS011;1368;49.484;11.112;2023-06-01T14:04:16;5.47;;;2.80;;
2720;SDS011;1368;49.484;11.112;2023-06-01T14:06:43;5.13;;;2.73;;
2720;SDS011;1368;49.484;11.112;2023-06-01T14:09:09;8.33;;;3.10;;
2720;SDS011;1368;49.484;11.112;2023-06-01T14:11:35;10.43;;;3.00;;
2720;SDS011;1368;49.484;11.112;2023-06-01T14:14:01;5.13;;;3.03;;
2720;SDS011;1368;49.484;11.112;2023-06-01T14:16:26;9.20;;;3.43;;
2720;SDS011;1368;49.484;11.112;2023-06-01T14:18:52;6.17;;;3.10;;
2720;SDS011;1368;49.484;11.112;2023-06-01T14:21:17;7.20;;;3.20;;
2720;SDS011;1368;49.484;11.112;2023-06-01T14:23:43;6.57;;;3.23;;
2720;SDS011;1368;49.484;11.112;2023-06-01T14:26:12;4.70;;;3.10;;
2720;SDS011;1368;49.484;11.112;2023-06-01T14:28:37;4.53;;;2.80;;
2720;SDS011;1368;49.484;11.112;2023-06-01T14:31:03;5.40;;;2.77;;
2720;SDS011;1368;49.484;11.112;2023-06-01T14:33:28;6.97;;;2.97;;
2720;SDS011;1368;49.484;11.112;2023-06-01T14:35:55;4.63;;;3.13;;
2720;SDS011;1368;49.484;11.112;2023-06-01T14:38:20;8.07;;;3.17;;
2720;SDS011;1368;49.484;11.112;2023-06-01T14:40:46;6.80;;;3.53;;
2720;SDS011;1368;49.484;11.112;2023-06-01T14:43:12;8.73;;;3.30;;
2720;SDS011;1368;49.484;11.112;2023-06-01T14:45:37;5.17;;;3.27;;
2720;SDS011;1368;49.484;11.112;2023-06-01T14:48:03;6.40;;;3.33;;
2720;SDS011;1368;49.484;11.112;2023-06-01T14:50:28;5.10;;;2.87;;
2720;SDS011;1368;49.484;11.112;2023-06-01T14:52:54;7.20;;;2.93;;
2720;SDS011;1368;49.484;11.112;2023-06-01T14:55:24;5.47;;;3.30;;
2720;SDS011;1368;49.484;11.112;2023-06-01T14:57:50;7.70;;;4.43;;
2720;SDS011;1368;49.484;11.112;2023-06-01T15:00:16;7.57;;;3.80;;
2720;SDS011;1368;49.484;11.112;2023-06-01T15:02:42;7.03;;;3.90;;
2720;SDS011;1368;49.484;11.112;2023-06-01T15:05:08;9.63;;;3.00;;
2720;SDS011;1368;49.484;11.112;2023-06-01T15:07:33;6.63;;;2.87;;
2720;SDS011;1368;49.484;11.112;2023-06-01T15:09:59;7.20;;;3.33;;
2720;SDS011;1368;49.484;11.112;2023-06-01T15:12:24;4.93;;;2.57;;
2720;SDS011;1368;49.484;11.112;2023-06-01T15:14:50;4.87;;;2.63;;
2720;SDS011;1368;49.484;11.112;2023-06-01T15:17:16;5.03;;;2.73;;
2720;SDS011;1368;49.484;11.112;2023-06-01T15:19:42;5.40;;;2.90;;
2720;SDS011;1368;49.484;11.112;2023-06-01T15:22:07;8.60;;;2.70;;
2720;SDS011;1368;49.484;11.112;2023-06-01T15:24:33;8.50;;;2.87;;
2720;SDS011;1368;49.484;11.112;2023-06-01T15:26:58;3.83;;;2.00;;
2720;SDS011;1368;49.484;11.112;2023-06-01T15:29:24;7.80;;;2.93;;
2720;SDS011;1368;49.484;11.112;2023-06-01T15:31:50;4.53;;;2.70;;
2720;SDS011;1368;49.484;11.112;2023-06-01T15:34:15;5.67;;;2.50;;
2720;SDS011;1368;49.484;11.112;2023-06-01T15:36:41;4.80;;;2.17;;
2720;SDS011;1368;49.484;11.112;2023-06-01T15:39:06;3.33;;;2.30;;